sensor_id;sensor_type;location;lat;lon;timestamp;temperature;humidity
23143;DHT22;11740;51.168;4.112;2024-02-23T10:39:18;6.40;99.90
23143;DHT22;11740;51.168;4.112;2024-02-23T10:42:02;6.70;99.90
23143;DHT22;11740;51.168;4.112;2024-02-23T10:44:31;6.40;99.90
23143;DHT22;11740;51.168;4.112;2024-02-23T10:56:51;6.80;78.70
23143;DHT22;11740;51.168;4.112;2024-02-23T10:59:20;6.80;99.90
23143;DHT22;11740;51.168;4.112;2024-02-23T11:01:50;6.80;99.90
23143;DHT22;11740;51.168;4.112;2024-02-23T11:04:20;6.80;99.90
23143;DHT22;11740;51.168;4.112;2024-02-23T11:06:52;6.90;99.90
23143;DHT22;11740;51.168;4.112;2024-02-23T11:09:23;7.10;99.90
23143;DHT22;11740;51.168;4.112;2024-02-23T11:11:55;7.00;73.00
23143;DHT22;11740;51.168;4.112;2024-02-23T11:14:38;7.00;75.50
23143;DHT22;11740;51.168;4.112;2024-02-23T11:17:06;7.10;99.90
23143;DHT22;11740;51.168;4.112;2024-02-23T11:19:39;7.00;1.00
23143;DHT22;11740;51.168;4.112;2024-02-23T11:22:10;7.00;1.00
23143;DHT22;11740;51.168;4.112;2024-02-23T11:24:49;6.90;1.00
23143;DHT22;11740;51.168;4.112;2024-02-23T11:27:24;7.00;1.00
23143;DHT22;11740;51.168;4.112;2024-02-23T11:29:59;7.00;1.00
23143;DHT22;11740;51.168;4.112;2024-02-23T11:32:45;7.00;1.00
23143;DHT22;11740;51.168;4.112;2024-02-23T11:35:16;7.00;1.00
23143;DHT22;11740;51.168;4.112;2024-02-23T11:37:52;7.00;1.00
23143;DHT22;11740;51.168;4.112;2024-02-23T11:45:30;7.20;1.00
23143;DHT22;11740;51.168;4.112;2024-02-23T11:47:58;7.30;1.00
23143;DHT22;11740;51.168;4.112;2024-02-23T11:50:26;7.20;1.00
23143;DHT22;11740;51.168;4.112;2024-02-23T11:52:53;7.20;99.90
23143;DHT22;11740;51.168;4.112;2024-02-23T11:55:21;7.20;1.00
23143;DHT22;11740;51.168;4.112;2024-02-23T11:57:50;7.20;99.90
23143;DHT22;11740;51.168;4.112;2024-02-23T12:00:31;7.20;1.00
23143;DHT22;11740;51.168;4.112;2024-02-23T12:02:58;7.30;1.00
23143;DHT22;11740;51.168;4.112;2024-02-23T12:05:26;7.20;1.00
23143;DHT22;11740;51.168;4.112;2024-02-23T12:07:54;7.20;99.90
23143;DHT22;11740;51.168;4.112;2024-02-23T12:10:21;7.30;1.00
23143;DHT22;11740;51.168;4.112;2024-02-23T12:12:49;7.30;1.00
23143;DHT22;11740;51.168;4.112;2024-02-23T12:15:16;7.30;1.00
23143;DHT22;11740;51.168;4.112;2024-02-23T12:17:50;7.30;1.00
23143;DHT22;11740;51.168;4.112;2024-02-23T12:20:17;7.30;1.00
23143;DHT22;11740;51.168;4.112;2024-02-23T12:22:45;7.30;1.00
23143;DHT22;11740;51.168;4.112;2024-02-23T12:25:12;7.50;1.00
23143;DHT22;11740;51.168;4.112;2024-02-23T12:27:40;7.50;1.00
23143;DHT22;11740;51.168;4.112;2024-02-23T12:30:14;7.60;1.00
23143;DHT22;11740;51.168;4.112;2024-02-23T12:32:42;7.50;1.00
23143;DHT22;11740;51.168;4.112;2024-02-23T12:35:12;7.60;1.00
23143;DHT22;11740;51.168;4.112;2024-02-23T12:37:40;7.50;1.00
23143;DHT22;11740;51.168;4.112;2024-02-23T12:40:11;7.50;1.00
23143;DHT22;11740;51.168;4.112;2024-02-23T12:42:39;7.60;1.00
23143;DHT22;11740;51.168;4.112;2024-02-23T12:45:06;7.70;1.00
23143;DHT22;11740;51.168;4.112;2024-02-23T12:47:34;7.60;1.00
23143;DHT22;11740;51.168;4.112;2024-02-23T13:19:34;8.80;99.90
23143;DHT22;11740;51.168;4.112;2024-02-23T13:22:01;8.70;99.90
23143;DHT22;11740;51.168;4.112;2024-02-23T13:24:28;8.60;99.90
23143;DHT22;11740;51.168;4.112;2024-02-23T13:26:55;8.60;99.90
23143;DHT22;11740;51.168;4.112;2024-02-23T13:39:14;8.90;99.90
23143;DHT22;11740;51.168;4.112;2024-02-23T13:41:41;8.80;99.90
23143;DHT22;11740;51.168;4.112;2024-02-23T14:16:17;9.30;99.90
23143;DHT22;11740;51.168;4.112;2024-02-23T14:18:44;9.30;99.90
23143;DHT22;11740;51.168;4.112;2024-02-23T14:21:11;9.30;99.90
23143;DHT22;11740;51.168;4.112;2024-02-23T14:23:40;9.40;99.90
23143;DHT22;11740;51.168;4.112;2024-02-23T14:26:08;9.40;99.90
23143;DHT22;11740;51.168;4.112;2024-02-23T15:37:34;8.90;98.70
23143;DHT22;11740;51.168;4.112;2024-02-23T15:40:02;9.00;10.00
23143;DHT22;11740;51.168;4.112;2024-02-23T15:42:30;9.80;1.00
23143;DHT22;11740;51.168;4.112;2024-02-23T15:44:58;10.20;99.90
23143;DHT22;11740;51.168;4.112;2024-02-23T15:47:25;10.30;99.90
23143;DHT22;11740;51.168;4.112;2024-02-23T15:49:52;10.20;99.90
23143;DHT22;11740;51.168;4.112;2024-02-23T15:52:39;9.70;99.90
23143;DHT22;11740;51.168;4.112;2024-02-23T15:55:07;9.20;99.90
23143;DHT22;11740;51.168;4.112;2024-02-23T15:57:39;9.10;1.00
23143;DHT22;11740;51.168;4.112;2024-02-23T16:00:06;8.90;1.00
23143;DHT22;11740;51.168;4.112;2024-02-23T16:07:34;8.90;1.00
23143;DHT22;11740;51.168;4.112;2024-02-23T16:10:01;8.70;1.00
23143;DHT22;11740;51.168;4.112;2024-02-23T17:21:27;7.90;99.90
23143;DHT22;11740;51.168;4.112;2024-02-23T17:23:54;7.80;99.90
23143;DHT22;11740;51.168;4.112;2024-02-23T17:26:23;7.90;99.90
23143;DHT22;11740;51.168;4.112;2024-02-23T17:28:50;7.80;99.90
23143;DHT22;11740;51.168;4.112;2024-02-23T17:31:18;7.80;99.90
23143;DHT22;11740;51.168;4.112;2024-02-23T17:33:45;7.80;99.90
23143;DHT22;11740;51.168;4.112;2024-02-23T18:13:09;7.00;99.90
23143;DHT22;11740;51.168;4.112;2024-02-23T18:15:38;6.90;99.90
23143;DHT22;11740;51.168;4.112;2024-02-23T18:18:05;6.80;99.90
23143;DHT22;11740;51.168;4.112;2024-02-23T18:20:33;6.70;1.00
23143;DHT22;11740;51.168;4.112;2024-02-23T18:23:00;6.50;1.00
23143;DHT22;11740;51.168;4.112;2024-02-23T18:25:28;6.60;1.00
23143;DHT22;11740;51.168;4.112;2024-02-23T18:27:55;6.50;1.00
23143;DHT22;11740;51.168;4.112;2024-02-23T18:30:22;6.50;1.00
23143;DHT22;11740;51.168;4.112;2024-02-23T18:32:49;6.50;1.00
23143;DHT22;11740;51.168;4.112;2024-02-23T18:35:16;6.60;1.00
23143;DHT22;11740;51.168;4.112;2024-02-23T18:40:13;6.40;1.00
23143;DHT22;11740;51.168;4.112;2024-02-23T18:59:54;6.50;1.00
23143;DHT22;11740;51.168;4.112;2024-02-23T19:49:10;6.10;1.00
23143;DHT22;11740;51.168;4.112;2024-02-23T19:51:37;6.00;1.00
23143;DHT22;11740;51.168;4.112;2024-02-23T19:54:05;5.90;1.00
23143;DHT22;11740;51.168;4.112;2024-02-23T19:56:32;5.90;15.50
23143;DHT22;11740;51.168;4.112;2024-02-23T19:58:59;5.90;66.40
23143;DHT22;11740;51.168;4.112;2024-02-23T20:01:26;5.80;99.90
23143;DHT22;11740;51.168;4.112;2024-02-23T20:18:40;5.90;78.20
23143;DHT22;11740;51.168;4.112;2024-02-23T20:23:35;5.70;99.90
23143;DHT22;11740;51.168;4.112;2024-02-23T20:26:03;5.70;99.90
23143;DHT22;11740;51.168;4.112;2024-02-23T20:28:30;5.50;99.90
23143;DHT22;11740;51.168;4.112;2024-02-23T20:30:58;5.50;99.90
23143;DHT22;11740;51.168;4.112;2024-02-23T20:33:29;5.40;99.90
23143;DHT22;11740;51.168;4.112;2024-02-23T20:35:57;5.40;99.90
23143;DHT22;11740;51.168;4.112;2024-02-23T20:38:25;5.40;99.90
23143;DHT22;11740;51.168;4.112;2024-02-23T20:40:52;5.40;99.90
23143;DHT22;11740;51.168;4.112;2024-02-23T20:43:19;5.30;99.90
23143;DHT22;11740;51.168;4.112;2024-02-23T20:45:46;5.30;99.90
23143;DHT22;11740;51.168;4.112;2024-02-23T20:48:13;5.30;99.90
23143;DHT22;11740;51.168;4.112;2024-02-23T21:05:27;5.30;75.50
23143;DHT22;11740;51.168;4.112;2024-02-23T21:22:39;5.10;66.20
23143;DHT22;11740;51.168;4.112;2024-02-23T21:25:07;5.10;1.00
23143;DHT22;11740;51.168;4.112;2024-02-23T21:27:34;4.90;28.20
23143;DHT22;11740;51.168;4.112;2024-02-23T21:30:01;4.80;99.90
23143;DHT22;11740;51.168;4.112;2024-02-23T21:32:32;4.80;99.90
23143;DHT22;11740;51.168;4.112;2024-02-23T21:35:00;4.80;99.90
23143;DHT22;11740;51.168;4.112;2024-02-23T21:37:27;4.70;99.90
23143;DHT22;11740;51.168;4.112;2024-02-23T21:39:54;4.70;99.90
23143;DHT22;11740;51.168;4.112;2024-02-23T21:42:21;4.70;99.90
23143;DHT22;11740;51.168;4.112;2024-02-23T21:44:48;4.60;99.90
23143;DHT22;11740;51.168;4.112;2024-02-23T21:47:16;4.60;99.90
23143;DHT22;11740;51.168;4.112;2024-02-23T21:49:43;4.60;99.90
23143;DHT22;11740;51.168;4.112;2024-02-23T21:52:10;4.60;99.90
23143;DHT22;11740;51.168;4.112;2024-02-23T21:54:38;4.60;99.90
23143;DHT22;11740;51.168;4.112;2024-02-23T21:57:08;4.50;99.90
23143;DHT22;11740;51.168;4.112;2024-02-23T21:59:35;4.50;99.90
23143;DHT22;11740;51.168;4.112;2024-02-23T22:02:03;4.50;99.90
23143;DHT22;11740;51.168;4.112;2024-02-23T22:04:35;4.50;99.90
23143;DHT22;11740;51.168;4.112;2024-02-23T22:07:03;4.70;99.90
23143;DHT22;11740;51.168;4.112;2024-02-23T22:09:30;4.40;99.90
23143;DHT22;11740;51.168;4.112;2024-02-23T22:11:57;4.40;99.90
23143;DHT22;11740;51.168;4.112;2024-02-23T22:14:25;4.40;99.90
23143;DHT22;11740;51.168;4.112;2024-02-23T22:29:09;4.50;99.90
23143;DHT22;11740;51.168;4.112;2024-02-23T22:31:36;4.30;99.90
23143;DHT22;11740;51.168;4.112;2024-02-23T22:34:10;4.30;99.90
23143;DHT22;11740;51.168;4.112;2024-02-23T22:36:37;4.20;99.90
23143;DHT22;11740;51.168;4.112;2024-02-23T22:39:04;4.30;1.00
23143;DHT22;11740;51.168;4.112;2024-02-23T22:41:31;4.20;1.00
23143;DHT22;11740;51.168;4.112;2024-02-23T22:43:59;4.10;1.00
23143;DHT22;11740;51.168;4.112;2024-02-23T22:46:26;4.20;1.00
23143;DHT22;11740;51.168;4.112;2024-02-23T22:48:53;4.10;1.00
23143;DHT22;11740;51.168;4.112;2024-02-23T22:51:21;4.10;1.00
23143;DHT22;11740;51.168;4.112;2024-02-23T23:08:34;4.20;99.90
23143;DHT22;11740;51.168;4.112;2024-02-23T23:11:02;4.10;99.90
23143;DHT22;11740;51.168;4.112;2024-02-23T23:15:56;4.10;99.90
23143;DHT22;11740;51.168;4.112;2024-02-23T23:18:23;4.00;1.00
